Welcome to our Virtual Airline
Sign-in:

Flight MFC9591

  • Submitted By: Igor Doksas
  • Departure Airport: Bella Coola Airport (CYBD)
  • Arrival Airport: Kwatna River Airfield (KR01)
  • Aircraft: BT67 (N0014M)
  • Flight Time: 00.21.10
  • Date Submitted: 2018/08/18
  • Route: FOLLOW THE TOUR FP
  • Status: Accepted
Flight Details
Gross Revenue:
(25 load / $ 36.00 per unit
$ 900.00
Fuel Cost:
(121.563 fuel used @ 5.1 / unit)
$ 619.97

Additional Log Information:

View Log

FS[12:34] ----- Flight Opened -----
FS[12:34] Cigar Box - 1.1.4.0
FS[12:34] FS: FSX
FS[12:34] FSUIPC: v4.966
FS[12:34] Flight Number: MFC9591
FS[12:34] FS Aircraft: Basler BT-67 Misty Moorings
FS[12:34] FS Model: DC3
FS[12:34] FS Type: Basler
FS[12:34] Departure: CYBD
FS[12:34] Arrival: KR01
FS[12:34] Flight Level: 6500
FS[12:34] Flight Type: H
FS[12:34] Passengers: 25
FS[12:34] FOB: 5373 lbs
FS[12:34] Gate: n/a
FS[12:34] Crash Detection: Disabled
FS[12:34] Crash Detection Aircraft: Disabled
FS[12:34] NOTE: Boarding has started
FS[12:34] Engines: 2 Turboprop
FS[12:34] Parking Brake: Engaged
FS[12:34] Engine 1: Started
FS[12:34] Engine 2: Started
FS[12:34] Flaps: Position 1
FS[12:34] Light Data: Navigation ON
FS[12:34] Light Data: Beacon ON
FS[12:34] Light Data: Landing lights ON
FS[12:34] Main Door Closed
FS[12:34] COM1: 128.30
FS[12:34] COM2: 127.80
FS[12:34] Transponder: 1200
FS[12:34] NAV1: 113.70
FS[12:34] NAV2: 110.60
FS[12:34] ADF1: 284.0
FS[12:34] ADF2: 240.0
FS[12:34] Navigation Mode: GPS
FS[12:34] Navigation Mode: GPS
FS[12:34] Parking Brake: Released
FS[12:34] NOTE: Taxi started
FS[12:34] NOTE: ----- TAKE OFF -----
FS[12:34] GS: 66 knots
FS[12:34] TAS: 66 knots
FS[12:34] IAS: 66 knots
FS[12:34] VS: 3 fpm
FS[12:34] FOB: 5366 lbs
FS[12:34] Heading: 252°
FS[12:34] Pitch: 8°
FS[12:34] Bank: 0°
FS[12:34] NOTE: ----- TAKE OFF -----
FS[12:34] Aircraft Weight: 21456.22 lbs
FS[12:34] GS: 68 knots
FS[12:34] TAS: 67 knots
FS[12:34] IAS: 67 knots
FS[12:34] VS: 3 fpm
FS[12:34] FOB: 5366 lbs
FS[12:34] Heading: 251°
FS[12:34] Pitch: 7°
FS[12:34] Bank: 0°
FS[12:34] Aircraft Weight: 21456.22 lbs
FS[12:34] NOTE: ----- TAKE OFF -----
FS[12:34] GS: 68 knots
FS[12:34] TAS: 68 knots
FS[12:34] IAS: 68 knots
FS[12:34] VS: 3 fpm
FS[12:34] FOB: 5366 lbs
FS[12:34] Heading: 251°
FS[12:34] Pitch: 7°
FS[12:34] Bank: 0°
FS[12:34] Aircraft Weight: 21456.22 lbs
FS[12:34] Nearest Airport: CYBD
FS[12:34] Distance: 0.17 miles
FS[12:34] Nearest Airport: CYBD
FS[12:34] Distance: 0.17 miles
FS[12:34] Nearest Airport: CYBD
FS[12:34] Distance: 0.17 miles
FS[12:34] Runway: ???
FS[12:34] Ground Surface: Asphalt
FS[12:34] Ground Condition: Normal
FS[12:34] NOTE: Weather Report
FS[12:34] NOTE: ----- TAKE OFF -----
FS[12:34] GS: 68 knots
FS[12:34] TAS: 68 knots
FS[12:34] IAS: 68 knots
FS[12:34] VS: 3 fpm
FS[12:34] FOB: 5366 lbs
FS[12:34] Heading: 251°
FS[12:34] Pitch: 7°
FS[12:34] Bank: 0°
FS[12:34] Aircraft Weight: 21456.22 lbs
FS[12:34] Nearest Airport: CYBD
FS[12:34] Distance: 0.17 miles
FS[12:34] Runway: ???
FS[12:34] Ground Surface: Asphalt
FS[12:34] Ground Condition: Normal
FS[12:34] NOTE: Weather Report
FS[12:34] Runway: ???
FS[12:34] Ground Surface: Asphalt
FS[12:34] Ground Condition: Normal
FS[12:34] NOTE: Weather Report
FS[12:34] NOTE: ----- TAKE OFF -----
FS[12:34] GS: 68 knots
FS[12:34] TAS: 68 knots
FS[12:34] IAS: 68 knots
FS[12:34] VS: 4 fpm
FS[12:34] FOB: 5366 lbs
FS[12:34] Heading: 251°
FS[12:34] Pitch: 7°
FS[12:34] Bank: 0°
FS[12:34] Aircraft Weight: 21456.22 lbs
FS[12:34] Nearest Airport: CYBD
FS[12:34] Distance: 0.17 miles
FS[12:34] Runway: ???
FS[12:34] Ground Surface: Asphalt
FS[12:34] Ground Condition: Normal
FS[12:34] NOTE: Weather Report
FS[12:34] NOTE: ----- TAKE OFF -----
FS[12:34] Wind Heading: 342°
FS[12:34] Wind Heading: 342°
FS[12:34] Wind Heading: 342°
FS[12:34] Wind Heading: 342°
FS[12:34] Runway: ???
FS[12:34] NOTE: ----- TAKE OFF -----
FS[12:34] GS: 68 knots
FS[12:34] TAS: 68 knots
FS[12:34] IAS: 68 knots
FS[12:34] VS: 4 fpm
FS[12:34] FOB: 5366 lbs
FS[12:34] Heading: 251°
FS[12:34] Pitch: 7°
FS[12:34] Bank: 0°
FS[12:34] Aircraft Weight: 21456.22 lbs
FS[12:34] Nearest Airport: CYBD
FS[12:34] Distance: 0.17 miles
FS[12:34] GS: 69 knots
FS[12:34] TAS: 69 knots
FS[12:34] IAS: 69 knots
FS[12:34] VS: 5 fpm
FS[12:34] FOB: 5366 lbs
FS[12:34] Heading: 251°
FS[12:34] Pitch: 7°
FS[12:34] Bank: 0°
FS[12:34] Aircraft Weight: 21456.22 lbs
FS[12:34] Nearest Airport: CYBD
FS[12:34] Distance: 0.17 miles
FS[12:34] Runway: ???
FS[12:34] Ground Surface: Asphalt
FS[12:34] Ground Condition: Normal
FS[12:34] NOTE: Weather Report
FS[12:34] Wind Heading: 342°
FS[12:34] Wind Speed: 0 knots
FS[12:34] OAT: 14° C
FS[12:34] TAT: 15° C
FS[12:34] Precipitation: None
FS[12:34] Dew Point: 4° C
FS[12:34] Visibility: 62 miles
FS[12:34] METAR: CYBD 181700Z 00000KT 15SM OVC035 13/10 A3034 RMK FU8 SLP274
FS[12:34] Runway: ???
FS[12:34] Ground Surface: Asphalt
FS[12:34] Ground Condition: Normal
FS[12:34] NOTE: Weather Report
FS[12:34] Wind Heading: 342°
FS[12:34] Wind Speed: 0 knots
FS[12:34] OAT: 14° C
FS[12:34] TAT: 15° C
FS[12:34] Precipitation: None
FS[12:34] Dew Point: 4° C
FS[12:34] Visibility: 62 miles
FS[12:34] METAR: CYBD 181700Z 00000KT 15SM OVC035 13/10 A3034 RMK FU8 SLP274
FS[12:34] Wind Speed: 0 knots
FS[12:34] OAT: 14° C
FS[12:34] TAT: 15° C
FS[12:34] Precipitation: None
FS[12:34] Dew Point: 4° C
FS[12:34] Visibility: 62 miles
FS[12:34] METAR: CYBD 181700Z 00000KT 15SM OVC035 13/10 A3034 RMK FU8 SLP274
FS[12:34] Wind Speed: 0 knots
FS[12:34] OAT: 14° C
FS[12:34] TAT: 15° C
FS[12:34] Precipitation: None
FS[12:34] Dew Point: 4° C
FS[12:34] Visibility: 62 miles
FS[12:34] METAR: CYBD 181700Z 00000KT 15SM OVC035 13/10 A3034 RMK FU8 SLP274
FS[12:34] Wind Speed: 0 knots
FS[12:34] OAT: 14° C
FS[12:34] TAT: 15° C
FS[12:34] Precipitation: None
FS[12:34] Dew Point: 4° C
FS[12:34] Visibility: 62 miles
FS[12:34] METAR: CYBD 181700Z 00000KT 15SM OVC035 13/10 A3034 RMK FU8 SLP274
FS[12:34] Ground Surface: Asphalt
FS[12:34] Wind Speed: 0 knots
FS[12:34] OAT: 14° C
FS[12:34] TAT: 15° C
FS[12:34] Precipitation: None
FS[12:34] Dew Point: 4° C
FS[12:34] Visibility: 62 miles
FS[12:34] METAR: CYBD 181700Z 00000KT 15SM OVC035 13/10 A3034 RMK FU8 SLP274
FS[12:34] Ground Condition: Normal
FS[12:34] NOTE: Weather Report
FS[12:34] Wind Heading: 342°
FS[12:34] Wind Speed: 0 knots
FS[12:34] OAT: 14° C
FS[12:34] TAT: 15° C
FS[12:34] Precipitation: None
FS[12:34] Dew Point: 4° C
FS[12:34] Visibility: 62 miles
FS[12:34] METAR: CYBD 181700Z 00000KT 15SM OVC035 13/10 A3034 RMK FU8 SLP274
FS[12:34] NOTE: Climb started
FS[12:34] Landing Gear: Retracted
FS[12:34] GS: 83 knots
FS[12:34] TAS: 85 knots
FS[12:34] IAS: 85 knots
FS[12:34] VS: 316 fpm
FS[12:34] AGL: 23 ft
FS[12:34] AMSL: 137 ft
FS[12:34] Flaps: Position 0
FS[12:34] GS: 87 knots
FS[12:34] TAS: 88 knots
FS[12:34] IAS: 88 knots
FS[12:34] VS: 475 fpm
FS[12:34] Autopilot: Engaged
FS[12:34] AGL: 59 ft
FS[12:34] AMSL: 173 ft
FS[12:34] View Mode: Virtual Cockpit
FS[12:37] NOTE: TOC reached
FS[12:37] NOTE: Cruise started
FS[12:37] GS: 141 knots
FS[12:37] TAS: 161 knots
FS[12:37] IAS: 147 knots
FS[12:37] VS: 193 fpm
FS[12:37] FOB: 5293 lbs
FS[12:37] Heading: 250°
FS[12:37] Pitch: 0°
FS[12:37] Bank: 0°
FS[12:37] Aircraft Weight: 21382.82 lbs
FS[12:41] NOTE: TOD reached
FS[12:41] NOTE: Descent started
FS[12:41] NOTE: TOD reached
FS[12:41] NOTE: Descent started
FS[12:41] GS: 202 knots
FS[12:41] TAS: 215 knots
FS[12:41] IAS: 199 knots
FS[12:41] VS: -795 fpm
FS[12:41] FOB: 5220 lbs
FS[12:41] Heading: 236°
FS[12:41] Pitch: 3°
FS[12:41] Bank: 6°
FS[12:41] Aircraft Weight: 21310.40 lbs
FS[12:41] GS: 202 knots
FS[12:41] TAS: 215 knots
FS[12:41] IAS: 199 knots
FS[12:41] VS: -795 fpm
FS[12:41] FOB: 5220 lbs
FS[12:41] Heading: 236°
FS[12:41] Pitch: 3°
FS[12:41] Bank: 6°
FS[12:41] Aircraft Weight: 21310.40 lbs
FS[12:42] NOTE: On approach
FS[12:47] Flaps: Position 1
FS[12:47] GS: 132 knots
FS[12:47] TAS: 133 knots
FS[12:47] IAS: 130 knots
FS[12:47] VS: -69 fpm
FS[12:47] Landing Gear: Extended
FS[12:47] GS: 116 knots
FS[12:47] TAS: 116 knots
FS[12:47] IAS: 113 knots
FS[12:47] VS: -134 fpm
FS[12:47] AGL: 1984 ft
FS[12:47] AMSL: 1984 ft
FS[12:47] Flaps: Position 4
FS[12:47] GS: 97 knots
FS[12:47] TAS: 97 knots
FS[12:47] IAS: 95 knots
FS[12:47] VS: 242 fpm
FS[12:48] FS: Paused
FS[12:48] FS: Unpaused
FS[12:49] Recovery: Flight Saved
FS[12:49] FS: Paused
FS[12:49] FS: Unpaused
FS[12:53] FS: Paused
FS[12:53] FS: Unpaused
FS[12:54] Autopilot: Disengaged
FS[12:54] AGL: 322 ft
FS[12:54] AMSL: 341 ft
FS[12:54] FS: Paused
FS[12:54] FS: Unpaused
FS[12:54] NOTE: ----- LANDED -----
FS[12:54] Landing Rate: -495.97 fpm
FS[12:54] GS: 68 knots
FS[12:54] TAS: 69 knots
FS[12:54] IAS: 69 knots
FS[12:54] VS: -456 fpm
FS[12:54] FOB: 5106 lbs
FS[12:54] Heading: 97°
FS[12:54] Pitch: 0°
FS[12:54] Bank: 0°
FS[12:54] Aircraft Weight: 21197.22 lbs
FS[12:54] Nearest Airport: KR01
FS[12:54] Distance: 0.00 miles
FS[12:54] Runway: ???
FS[12:54] Ground Surface: Forest
FS[12:54] Ground Condition: Normal
FS[12:54] NOTE: Weather Report
FS[12:54] Wind Heading: 342°
FS[12:54] Wind Speed: 0 knots
FS[12:54] OAT: 14° C
FS[12:54] TAT: 15° C
FS[12:54] Precipitation: None
FS[12:54] Dew Point: 4° C
FS[12:54] Visibility: 62 miles
FS[12:54] METAR: No METAR available for KR01.
FS[12:54] View Mode: Spot Plane
FS[12:54] Reverse Thrust Started: 62 knots
FS[12:54] NOTE: Taxi started
FS[12:55] Reverse Thrust Stopped: 0 knots
FS[12:55] NOTE: Arrived
FS[12:55] Parking Brake: Engaged
FS[12:55] Gate: n/a
FS[12:55] NOTE: Flight Completed
FS[12:55] FS Aircraft: Basler BT-67 Misty Moorings
FS[12:55] FS Model: DC3
FS[12:55] FS Type: Basler
FS[12:55] FOB: 5105 lbs
FS[12:55] Fuel Used: 268 lbs
FS[12:55] Flight Time: 00:21:09
FS[12:55] Flight Time (Dawn): 00:00:00
FS[12:55] Flight Time (Day): 00:21:09
FS[12:55] Flight Time (Dusk): 00:00:00
FS[12:55] Flight Time (Night): 00:00:00
FS[12:55] Total Landings: 1
FS[12:55] MaxSim Rate: 1x
FS[12:55] Cigar Box - 1.1.4.0
FS[12:55] ----- Flight Closed -----

Route Map